Time;durP1;ratioP1;P1;durP2;ratioP2;P2;SDS_P1;SDS_P2;PMS_P1;PMS_P2;Temp;Humidity;BMP_temperature;BMP_pressure;BME280_temperature;BME280_humidity;BME280_pressure;Samples;Min_cycle;Max_cycle;Signal;HPM_P1;HPM_P2
2021/07/25 05:25:36;;;;;;;31.45;21.75;;;17.70;99.90;;;19.35;100.00;99786.97;6282270;22;20031;-89
2021/07/25 05:28:06;;;;;;;35.25;22.95;;;17.80;99.90;;;19.41;100.00;99787.28;6308300;22;20056;-89
2021/07/25 05:30:39;;;;;;;30.73;22.05;;;17.90;99.90;;;19.50;100.00;99786.66;6282032;22;20008;-87
2021/07/25 05:33:07;;;;;;;30.08;20.30;;;18.00;99.90;;;19.63;100.00;99787.59;6282952;22;20007;-90
2021/07/25 05:35:35;;;;;;;25.83;19.50;;;18.10;99.90;;;19.80;100.00;99784.34;6283416;22;20014;-88
2021/07/25 05:38:02;;;;;;;26.63;19.27;;;18.30;99.90;;;19.94;100.00;99783.97;6282133;22;20011;-89
2021/07/25 05:40:28;;;;;;;26.98;18.30;;;18.40;99.90;;;19.92;100.00;99785.66;6281823;22;20008;-88
2021/07/25 05:42:54;;;;;;;25.23;17.98;;;18.50;99.90;;;19.83;100.00;99789.13;6284136;22;20019;-90
2021/07/25 05:45:20;;;;;;;22.35;17.20;;;18.60;99.90;;;20.06;98.73;99793.03;6293738;22;20022;-89
2021/07/25 05:47:46;;;;;;;25.73;18.10;;;18.60;99.90;;;20.15;98.28;99799.66;6297436;22;20015;-88
2021/07/25 05:50:12;;;;;;;20.98;16.45;;;18.80;99.90;;;20.39;96.43;99803.13;6279420;22;20003;-87
2021/07/25 05:52:57;;;;;;;19.15;15.20;;;18.90;99.90;;;20.56;95.88;99812.41;6278934;22;20031;-90
2021/07/25 05:55:35;;;;;;;23.52;15.18;;;19.10;99.90;;;20.61;94.77;99809.84;6281300;22;20007;-90
2021/07/25 05:58:01;;;;;;;19.63;14.43;;;19.20;99.90;;;20.97;92.82;99801.09;6280122;22;20505;-87
2021/07/25 06:00:34;;;;;;;19.05;14.05;;;19.40;99.90;;;21.34;91.09;99806.13;6280093;22;20022;-89
2021/07/25 06:03:03;;;;;;;20.05;13.88;;;19.60;99.90;;;21.46;91.03;99796.84;6277292;22;20438;-87
2021/07/25 06:05:34;;;;;;;15.70;13.02;;;19.80;99.90;;;21.76;89.93;99798.34;6280607;22;20349;-89
2021/07/25 06:08:06;;;;;;;17.80;12.73;;;20.00;99.90;;;21.64;88.04;99799.09;6278543;22;20007;-89
2021/07/25 06:10:34;;;;;;;20.15;12.32;;;20.00;99.90;;;21.62;87.57;99797.97;6277791;22;20010;-90
2021/07/25 06:13:04;;;;;;;18.40;11.45;;;20.00;99.90;;;21.34;88.48;99782.63;6277652;22;19999;-89
2021/07/25 06:15:33;;;;;;;17.80;12.77;;;19.80;99.90;;;21.40;89.14;99792.16;6277755;22;20094;-90
2021/07/25 06:18:05;;;;;;;15.93;11.82;;;19.80;99.90;;;21.60;89.82;99797.66;6277994;22;20008;-89
2021/07/25 06:20:34;;;;;;;14.43;11.25;;;20.00;99.90;;;21.96;87.50;99798.91;6278457;22;20007;-90
2021/07/25 06:23:01;;;;;;;14.25;11.15;;;20.30;99.90;;;22.09;86.38;99790.38;6277310;22;20345;-88
2021/07/25 06:25:33;;;;;;;14.73;10.60;;;20.50;99.90;;;22.48;82.68;99791.88;6277613;22;20433;-88
2021/07/25 06:28:04;;;;;;;15.13;10.20;;;20.70;99.90;;;22.37;82.36;99788.63;6277871;22;19999;-89
2021/07/25 06:30:31;;;;;;;11.93;10.38;;;20.80;99.90;;;22.59;81.00;99803.69;6277745;22;20010;-90
2021/07/25 06:33:02;;;;;;;14.43;9.05;;;21.00;99.90;;;22.65;81.01;99795.34;6279015;22;20001;-88
2021/07/25 06:35:32;;;;;;;15.10;10.30;;;21.00;99.90;;;22.98;80.75;99803.09;6278605;22;20057;-88
2021/07/25 06:38:02;;;;;;;11.60;8.45;;;21.30;99.90;;;23.29;78.36;99802.34;6279240;22;20030;-87
2021/07/25 06:40:29;;;;;;;9.18;8.02;;;21.50;99.90;;;22.72;78.57;99801.63;6279653;22;20018;-89
2021/07/25 06:42:59;;;;;;;11.70;7.40;;;21.40;99.90;;;22.59;79.34;99807.34;6280235;22;20349;-88
2021/07/25 06:45:26;;;;;;;10.00;7.28;;;21.20;99.90;;;22.70;79.61;99806.19;6280027;22;20008;-89
2021/07/25 06:47:53;;;;;;;10.38;7.38;;;21.20;99.90;;;22.53;79.93;99809.19;6280313;22;20006;-87
2021/07/25 06:50:29;;;;;;;13.18;7.45;;;21.10;99.90;;;22.08;81.45;99811.53;6283385;22;20007;-87
2021/07/25 06:52:57;;;;;;;9.93;6.43;;;20.80;99.90;;;21.63;83.04;99816.63;6278201;22;20157;-89
2021/07/25 06:55:28;;;;;;;7.63;5.68;;;20.60;99.90;;;21.45;83.43;99811.47;6293374;22;20007;-86
2021/07/25 06:57:55;;;;;;;7.15;5.75;;;20.30;99.90;;;21.25;83.28;99814.53;6290882;22;20027;-89
2021/07/25 07:00:21;;;;;;;8.50;5.07;;;20.20;99.90;;;21.07;83.71;99808.53;6280394;22;20007;-89
2021/07/25 07:02:56;;;;;;;5.78;4.97;;;20.00;99.90;;;21.04;83.55;99806.59;6279266;22;20444;-88
2021/07/25 07:05:30;;;;;;;;;;;19.90;99.90;;;21.08;83.80;99809.31;6280663;22;20437;-90
2021/07/25 07:08:03;;;;;;;7.07;4.60;;;19.80;99.90;;;21.10;84.53;99821.84;6278885;22;19945;-88
2021/07/25 07:10:39;;;;;;;7.97;5.00;;;19.80;99.90;;;21.08;83.09;99815.00;6281587;22;20007;-88
2021/07/25 07:13:15;;;;;;;7.85;5.25;;;19.90;99.90;;;21.40;83.03;99821.38;6280831;22;20090;-89
2021/07/25 07:15:45;;;;;;;7.03;4.30;;;19.90;99.90;;;21.61;82.89;99814.22;6280561;22;20008;-88
2021/07/25 07:18:11;;;;;;;9.25;5.15;;;20.00;99.90;;;21.65;82.89;99819.81;6280285;22;20015;-87
2021/07/25 07:20:39;;;;;;;6.47;5.10;;;20.20;99.90;;;21.44;81.72;99812.75;6280699;22;20007;-90
2021/07/25 07:23:10;;;;;;;10.70;4.78;;;20.20;99.90;;;21.69;81.73;99823.34;6308697;22;20015;-90
2021/07/25 07:25:44;;;;;;;11.73;5.32;;;20.20;99.90;;;21.78;80.81;99817.75;6281713;22;20060;-91
2021/07/25 07:28:11;;;;;;;6.22;4.65;;;20.30;99.90;;;21.62;82.46;99821.50;6280666;22;20061;-88
2021/07/25 07:30:38;;;;;;;6.38;4.15;;;20.30;99.90;;;21.75;81.36;99822.31;6281107;22;20007;-88
2021/07/25 07:33:17;;;;;;;6.95;4.38;;;20.40;99.90;;;21.79;81.40;99817.31;6281075;22;20014;-89
2021/07/25 07:35:44;;;;;;;6.93;4.55;;;20.40;99.90;;;22.08;80.16;99830.66;6281104;22;20094;-88
2021/07/25 07:38:13;;;;;;;6.47;4.82;;;20.60;99.90;;;22.28;80.08;99825.50;6281130;22;20042;-90
2021/07/25 07:40:43;;;;;;;9.50;5.07;;;20.70;99.90;;;22.43;79.30;99835.94;6280381;22;20014;-89
2021/07/25 07:43:12;;;;;;;10.13;5.10;;;20.80;99.90;;;22.50;77.92;99834.91;6279335;22;20011;-88
2021/07/25 07:45:41;;;;;;;6.72;4.68;;;20.90;99.90;;;22.71;78.20;99834.19;6279444;22;20019;-88
2021/07/25 07:48:10;;;;;;;8.68;5.10;;;20.90;99.90;;;22.73;78.96;99828.03;6279276;22;20007;-88
2021/07/25 07:50:36;;;;;;;6.40;4.97;;;21.10;99.90;;;22.56;78.75;99838.75;6279889;22;20004;-89
2021/07/25 07:53:03;;;;;;;5.93;4.82;;;21.10;99.90;;;22.73;77.45;99830.88;6280004;22;20008;-87
2021/07/25 07:55:29;;;;;;;6.13;4.43;;;21.10;99.90;;;22.72;77.56;99834.97;6280414;22;20035;-88
2021/07/25 07:57:55;;;;;;;7.38;4.65;;;21.20;99.90;;;22.77;77.42;99826.63;6279741;22;20410;-89
2021/07/25 08:00:21;;;;;;;5.70;4.43;;;21.20;99.90;;;23.12;76.42;99835.16;6278998;22;20008;-89
2021/07/25 08:02:47;;;;;;;7.72;4.35;;;21.40;99.90;;;23.31;75.74;99831.19;6279241;22;20011;-88
2021/07/25 08:05:13;;;;;;;7.30;4.85;;;21.60;99.90;;;23.60;74.95;99823.13;6279167;22;20012;-90
2021/07/25 08:07:40;;;;;;;5.55;4.55;;;21.90;99.90;;;24.21;72.91;99828.03;6281442;22;20008;-87
2021/07/25 08:10:08;;;;;;;9.88;5.07;;;22.30;99.90;;;24.39;70.85;99828.09;6281519;22;20011;-89
2021/07/25 08:12:36;;;;;;;7.10;4.60;;;22.60;99.90;;;24.53;70.41;99832.41;6308658;22;20011;-88
2021/07/25 08:15:06;;;;;;;8.75;4.65;;;22.80;99.90;;;25.12;68.56;99831.03;6282682;22;20003;-89
2021/07/25 08:17:32;;;;;;;7.60;4.35;;;23.20;99.90;;;25.09;67.65;99837.69;6281858;22;20017;-87
2021/07/25 08:19:58;;;;;;;7.35;4.38;;;23.30;99.90;;;24.91;67.86;99832.78;6280994;22;20090;-87
2021/07/25 08:22:24;;;;;;;7.70;4.57;;;23.20;99.90;;;25.28;67.53;99842.13;6283410;22;20508;-89
2021/07/25 08:24:50;;;;;;;5.80;4.10;;;23.30;99.90;;;25.16;67.58;99835.31;6279224;22;20012;-89
2021/07/25 08:27:18;;;;;;;6.35;4.70;;;23.30;99.90;;;25.12;67.67;99842.44;6279226;22;20008;-88
2021/07/25 08:29:43;;;;;;;6.03;4.38;;;23.30;99.90;;;24.70;66.99;99832.88;6281100;22;20011;-87
2021/07/25 08:32:11;;;;;;;6.38;4.43;;;23.30;99.90;;;24.97;67.89;99835.81;6280486;22;20004;-88
2021/07/25 08:34:38;;;;;;;5.20;4.30;;;23.30;99.90;;;25.08;66.89;99831.19;6279451;22;20326;-88
2021/07/25 08:37:06;;;;;;;8.13;4.22;;;23.30;99.90;;;25.27;66.39;99846.25;6279825;22;20090;-87
2021/07/25 08:39:32;;;;;;;7.30;4.32;;;23.50;99.90;;;25.12;65.69;99842.44;6278000;22;20087;-90
2021/07/25 08:42:11;;;;;;;5.97;4.32;;;23.60;99.90;;;25.84;64.99;99841.56;6278879;22;20069;-88
2021/07/25 08:44:57;;;;;;;6.80;4.13;;;23.90;99.90;;;26.70;60.65;99842.56;6283699;22;20008;-90
2021/07/25 08:47:54;;;;;;;9.38;4.72;;;24.60;99.90;;;26.62;61.18;99838.47;6280418;22;20289;-88
2021/07/25 08:50:27;;;;;;;7.80;4.60;;;24.80;99.90;;;26.30;60.96;99842.16;6279599;22;20008;-88
2021/07/25 08:52:55;;;;;;;7.53;4.32;;;24.70;99.90;;;26.90;59.91;99832.56;6305170;22;20078;-88
2021/07/25 08:55:23;;;;;;;8.43;4.25;;;25.00;99.90;;;27.88;57.88;99839.91;6282888;22;20008;-90
2021/07/25 08:57:52;;;;;;;6.03;4.10;;;25.50;99.90;;;28.46;55.73;99833.25;6282276;22;20014;-89
2021/07/25 09:00:23;;;;;;;6.00;3.78;;;26.00;99.90;;;28.72;54.93;99828.44;6282314;22;20120;-88
2021/07/25 09:02:51;;;;;;;6.45;4.43;;;26.40;99.90;;;28.76;55.93;99834.75;6282322;22;20019;-88
2021/07/25 09:05:17;;;;;;;8.32;4.22;;;26.70;99.90;;;28.93;52.92;99837.84;6280802;22;20011;-89
2021/07/25 09:07:48;;;;;;;5.68;4.00;;;26.90;99.90;;;29.45;53.72;99833.75;6284218;22;20336;-90
2021/07/25 09:10:22;;;;;;;5.38;3.70;;;27.10;99.90;;;29.17;52.48;99827.69;6284129;22;20027;-89
2021/07/25 09:12:52;;;;;;;6.00;3.72;;;27.20;99.90;;;29.20;52.55;99832.41;6285568;22;20004;-89
2021/07/25 09:15:33;;;;;;;7.95;3.60;;;27.30;99.90;;;29.02;54.63;99829.88;6311001;22;20008;-87
2021/07/25 09:18:03;;;;;;;5.97;3.50;;;27.30;99.90;;;29.96;50.33;99829.28;6281177;22;20018;-87
2021/07/25 09:20:42;;;;;;;6.32;3.33;;;27.50;99.90;;;30.30;48.55;99833.97;6281288;22;20008;-88
2021/07/25 09:23:19;;;;;;;5.18;3.30;;;27.90;99.90;;;30.19;48.89;99819.50;6299157;22;20007;-87
2021/07/25 09:25:57;;;;;;;12.85;3.58;;;27.90;99.90;;;30.50;47.94;99821.56;6284656;22;20016;-89
2021/07/25 09:28:36;;;;;;;11.00;4.65;;;28.10;99.90;;;29.43;50.14;99824.06;6307425;22;20398;-89
2021/07/25 09:31:15;;;;;;;4.38;3.08;;;28.00;99.90;;;28.75;51.07;99825.34;6283934;22;20008;-87
2021/07/25 09:33:45;;;;;;;6.85;3.22;;;27.50;99.90;;;29.40;50.60;99831.63;6287861;22;19997;-93
2021/07/25 09:36:22;;;;;;;4.60;3.33;;;27.60;99.90;;;30.41;47.96;99830.41;6303778;22;20004;-89
2021/07/25 09:38:53;;;;;;;5.45;3.47;;;27.80;99.90;;;30.47;47.07;99829.13;6290189;22;20095;-88
2021/07/25 09:41:24;;;;;;;4.88;3.38;;;28.10;98.50;;;30.28;48.63;99830.81;6280869;22;20089;-90
2021/07/25 09:44:11;;;;;;;5.72;3.42;;;28.30;99.90;;;30.68;48.02;99839.22;6280736;22;20003;-87
2021/07/25 09:46:49;;;;;;;5.25;3.00;;;28.50;99.30;;;30.84;46.17;99829.06;6280456;22;20015;-88
2021/07/25 09:49:18;;;;;;;7.32;3.00;;;28.60;95.50;;;30.75;45.39;99829.28;6281063;22;20023;-89
2021/07/25 09:51:45;;;;;;;8.20;3.10;;;28.80;93.40;;;30.81;46.37;99842.44;6285446;22;20007;-90
2021/07/25 09:54:12;;;;;;;4.60;3.15;;;28.80;94.10;;;30.19;47.59;99826.03;6307556;22;20008;-86
2021/07/25 09:56:42;;;;;;;6.20;2.92;;;28.70;93.80;;;30.32;47.20;99826.41;6283244;22;20094;-86
2021/07/25 09:59:26;;;;;;;4.65;2.90;;;28.70;93.10;;;30.09;46.72;99827.53;6282018;22;20106;-90
2021/07/25 10:01:52;;;;;;;5.78;2.72;;;28.50;91.80;;;30.52;45.91;99822.63;6310641;22;20012;-89
2021/07/25 10:04:23;;;;;;;4.38;3.22;;;28.60;92.00;;;30.88;47.30;99818.06;6289633;22;20022;-88
2021/07/25 10:06:55;;;;;;;6.65;3.00;;;28.80;94.80;;;31.03;45.90;99812.91;6288216;22;20004;-88
2021/07/25 10:09:24;;;;;;;6.90;2.90;;;29.00;93.00;;;31.05;45.65;99827.59;6282037;22;20337;-89
2021/07/25 10:12:01;;;;;;;4.30;2.72;;;29.30;91.40;;;30.96;43.73;99816.28;6281911;22;20030;-89
2021/07/25 10:14:29;;;;;;;3.75;2.70;;;29.20;84.70;;;30.01;48.00;99823.56;6286458;22;20050;-91
2021/07/25 10:16:59;;;;;;;4.95;3.00;;;29.00;90.70;;;31.02;44.42;99824.97;6289546;22;20058;-89
2021/07/25 10:19:42;;;;;;;4.07;2.53;;;29.20;86.70;;;30.79;44.19;99821.19;6285463;22;20090;-92
2021/07/25 10:22:14;;;;;;;3.97;2.72;;;29.00;84.80;;;30.01;46.37;99819.88;6292860;22;20008;-88
2021/07/25 10:24:43;;;;;;;4.18;2.78;;;28.40;88.50;;;29.56;46.66;99810.06;6294972;22;20018;-87
2021/07/25 10:27:10;;;;;;;4.13;2.90;;;27.80;90.00;;;29.27;48.25;99814.75;6288781;22;20003;-88
2021/07/25 10:29:40;;;;;;;4.80;2.60;;;27.70;91.90;;;30.23;45.52;99808.53;6287889;22;20014;-88
2021/07/25 10:32:09;;;;;;;5.22;2.80;;;28.20;90.40;;;30.51;44.92;99814.47;6285398;22;20035;-90
2021/07/25 10:34:40;;;;;;;3.13;2.20;;;28.70;87.60;;;31.23;42.84;99806.16;6284971;22;20018;-88
2021/07/25 10:37:06;;;;;;;3.00;2.50;;;29.10;83.60;;;31.42;42.02;99810.13;6283665;22;20006;-90
2021/07/25 10:39:41;;;;;;;4.90;2.60;;;29.40;81.70;;;30.81;42.42;99804.94;6285065;22;20103;-88
2021/07/25 10:42:08;;;;;;;3.22;2.10;;;29.20;79.80;;;31.12;42.24;99812.69;6285617;22;20374;-89
2021/07/25 10:44:34;;;;;;;4.88;2.50;;;29.00;80.20;;;29.58;42.91;99808.25;6290462;22;20014;-89
2021/07/25 10:47:22;;;;;;;3.53;2.42;;;28.40;76.80;;;28.68;45.97;99811.41;6289783;22;20016;-88
2021/07/25 10:50:03;;;;;;;5.45;2.55;;;27.80;80.10;;;28.51;45.40;99809.59;6289937;22;20023;-90
2021/07/25 10:52:52;;;;;;;2.78;2.28;;;27.30;80.60;;;29.39;45.11;99817.72;6291179;22;20007;-89
2021/07/25 10:55:41;;;;;;;3.17;1.98;;;27.60;83.80;;;30.77;44.32;99818.81;6291736;22;20007;-89
2021/07/25 10:58:19;;;;;;;5.97;2.40;;;28.40;86.10;;;31.23;40.24;99815.59;6290803;22;20018;-89
2021/07/25 11:19:50;;;;;;;5.85;2.45;;;30.00;73.70;;;31.01;40.03;99818.44;6272868;22;20033;-91
2021/07/25 11:22:54;;;;;;;3.47;2.28;;;29.70;69.20;;;29.66;42.20;99818.00;6246523;23;20066;-88
2021/07/25 11:29:49;;;;;;;3.83;2.72;;;27.70;76.30;;;28.29;46.74;99812.91;6225007;23;20087;-91
2021/07/25 11:33:18;;;;;;;;;;;;;;;;;;;;;
2021/07/25 11:37:06;;;;;;;3.13;2.45;;;26.40;86.50;;;27.46;49.34;99802.91;6157014;23;20029;-89
2021/07/25 11:40:45;;;;;;;;;;;;;;;;;;;;;
2021/07/25 12:53:56;;;;;;;3.97;2.30;;;29.00;64.50;;;29.90;40.19;99788.13;6277518;22;20085;-91
2021/07/25 12:56:42;;;;;;;2.92;1.90;;;28.30;67.90;;;29.51;41.42;99791.44;6251869;22;20012;-88
2021/07/25 12:59:13;;;;;;;3.10;2.03;;;28.00;71.30;;;29.34;42.64;99790.50;6250866;22;20070;-90
2021/07/25 13:04:58;;;;;;;3.03;2.13;;;27.40;72.30;;;29.18;42.94;99788.22;6259163;23;20083;-91
2021/07/25 13:08:17;;;;;;;4.95;2.00;;;27.40;73.40;;;29.85;42.43;99791.75;6199657;23;20127;-89
2021/07/25 13:14:38;;;;;;;;;;;28.00;70.90;;;29.71;41.38;99790.56;6249060;23;20046;-90
2021/07/25 13:17:13;;;;;;;2.65;2.03;;;27.90;70.70;;;28.91;44.68;99795.22;6196497;23;19904;-90
2021/07/25 13:20:07;;;;;;;3.17;2.10;;;27.40;75.40;;;28.29;45.15;99795.69;6222667;23;20034;-89
2021/07/25 13:22:36;;;;;;;4.60;2.30;;;27.00;75.40;;;28.13;44.87;99799.88;6223090;23;20094;-90
2021/07/25 13:25:05;;;;;;;5.65;2.50;;;26.70;75.60;;;27.96;46.96;99795.16;6223333;23;20011;-89
2021/07/25 13:27:35;;;;;;;2.95;2.33;;;26.60;79.00;;;27.89;47.60;99799.25;6223129;23;20004;-90
2021/07/25 13:30:41;;;;;;;3.35;1.88;;;26.40;81.80;;;28.00;45.42;99795.75;6223934;23;20023;-91
2021/07/25 13:33:09;;;;;;;2.67;2.03;;;26.30;78.70;;;27.73;44.74;99794.81;6207528;23;20004;-89
2021/07/25 13:35:35;;;;;;;4.00;2.10;;;26.10;76.60;;;27.44;46.00;99799.75;6226107;23;20349;-91
2021/07/25 13:38:10;;;;;;;3.15;2.20;;;26.00;78.60;;;27.39;46.64;99800.44;6226864;23;20058;-90
2021/07/25 13:41:06;;;;;;;3.35;2.13;;;25.90;80.30;;;27.17;48.33;99793.00;6227605;23;20091;-89
2021/07/25 13:43:50;;;;;;;3.75;2.08;;;25.90;84.00;;;27.37;48.49;99806.66;6221791;23;20059;-91
2021/07/25 13:46:30;;;;;;;4.63;2.15;;;25.90;85.10;;;27.91;48.30;99802.38;6215229;23;20012;-89
2021/07/25 16:05:30;;;;;;;2.43;1.83;;;26.40;72.00;;;28.41;43.04;99714.16;6278215;22;20329;-89
2021/07/25 16:08:42;;;;;;;3.20;1.80;;;26.50;72.90;;;28.48;42.37;99730.94;6304287;22;20011;-87
2021/07/25 16:11:29;;;;;;;3.20;1.75;;;26.60;72.20;;;28.43;42.72;99725.13;6302939;22;20371;-90
2021/07/25 16:13:57;;;;;;;3.45;2.08;;;26.50;72.80;;;28.18;43.71;99727.44;6277828;22;20004;-90
2021/07/25 16:16:24;;;;;;;4.45;1.85;;;26.40;74.60;;;27.82;43.85;99725.03;6276721;22;20397;-91
2021/07/25 16:18:54;;;;;;;2.67;1.80;;;26.20;73.40;;;27.83;44.81;99722.97;6278252;22;20011;-88
2021/07/25 16:21:26;;;;;;;3.53;1.83;;;26.10;76.50;;;27.88;44.35;99714.44;6277970;22;20008;-88
2021/07/25 16:23:57;;;;;;;3.10;1.63;;;26.10;75.60;;;27.82;44.81;99725.03;6280588;22;20034;-87
2021/07/25 16:26:27;;;;;;;2.95;2.05;;;26.10;76.40;;;27.50;45.41;99728.97;6307182;22;20034;-90
2021/07/25 16:28:55;;;;;;;4.10;1.92;;;26.00;76.10;;;27.55;45.46;99743.38;6306636;22;20019;-90
2021/07/25 16:31:44;;;;;;;4.60;1.90;;;25.90;77.50;;;27.52;47.56;99743.59;6278527;22;20008;-84
2021/07/25 16:34:10;;;;;;;3.95;2.10;;;25.80;82.40;;;27.28;49.70;99751.50;6254928;22;20012;-89
2021/07/25 16:36:38;;;;;;;3.50;2.20;;;25.60;88.20;;;27.05;50.60;99753.16;6282923;22;20039;-87
2021/07/25 16:39:04;;;;;;;4.28;2.53;;;25.50;89.90;;;27.23;51.04;99748.03;6299645;22;19999;-86
2021/07/25 16:41:30;;;;;;;3.65;2.25;;;25.50;91.90;;;27.39;50.97;99745.97;6293113;22;20016;-89
2021/07/25 16:44:00;;;;;;;2.42;2.05;;;25.60;93.20;;;27.41;50.50;99741.31;6276316;22;20019;-91
2021/07/25 16:46:25;;;;;;;4.65;2.20;;;25.60;93.30;;;27.45;50.66;99744.81;6275378;22;20019;-88
2021/07/25 16:48:52;;;;;;;3.25;2.28;;;25.60;93.80;;;27.28;51.08;99743.69;6275715;22;20102;-89
2021/07/25 16:51:18;;;;;;;5.10;2.47;;;25.60;94.50;;;27.33;51.84;99754.44;6276600;22;20126;-92
2021/07/25 16:53:43;;;;;;;3.80;2.05;;;25.60;96.30;;;27.34;52.23;99750.31;6275861;22;20487;-90
2021/07/25 16:56:15;;;;;;;4.35;2.38;;;25.60;97.90;;;27.28;51.43;99762.94;6275535;22;20354;-90
2021/07/25 16:58:41;;;;;;;4.00;2.50;;;25.60;96.90;;;27.20;52.07;99771.94;6301559;22;20039;-90
2021/07/25 17:06:18;;;;;;;5.68;2.28;;;25.00;99.90;;;26.46;54.08;99769.38;6283254;22;19915;-87
2021/07/25 17:08:43;;;;;;;5.38;2.63;;;24.80;99.90;;;26.24;55.53;99768.88;6283298;22;20019;-89
2021/07/25 17:11:20;;;;;;;4.70;2.45;;;24.60;99.90;;;25.70;57.73;99779.31;6282497;22;20011;-89
2021/07/25 17:13:47;;;;;;;5.07;2.88;;;24.30;99.90;;;25.46;61.76;99787.00;6284665;22;20441;-88
2021/07/25 17:16:26;;;;;;;4.90;2.60;;;24.10;99.90;;;25.16;65.65;99783.88;6289627;22;20006;-89
2021/07/25 17:18:54;;;;;;;3.05;2.20;;;23.70;99.90;;;24.94;67.13;99780.44;6288054;22;20004;-89
2021/07/25 17:21:23;;;;;;;3.83;2.50;;;23.50;99.90;;;24.82;68.20;99780.59;6312547;22;20011;-88
2021/07/25 17:23:50;;;;;;;4.32;2.38;;;23.30;99.90;;;24.65;70.75;99771.50;6289041;22;20058;-89
2021/07/25 17:26:17;;;;;;;4.88;2.80;;;23.10;99.90;;;24.66;69.86;99768.16;6289668;22;20015;-91
2021/07/25 17:28:46;;;;;;;3.47;2.33;;;23.10;99.90;;;24.63;69.47;99766.25;6293373;22;20003;-89
2021/07/25 17:31:13;;;;;;;3.50;2.13;;;23.00;99.90;;;24.66;68.41;99759.59;6286337;22;20015;-87
2021/07/25 17:33:45;;;;;;;3.78;2.20;;;23.00;99.90;;;24.67;68.08;99763.25;6294794;22;20026;-88
2021/07/25 17:36:19;;;;;;;3.50;2.00;;;22.90;99.90;;;24.58;67.77;99763.25;6302151;22;19999;-87
2021/07/25 17:38:46;;;;;;;4.38;2.28;;;23.00;99.90;;;24.57;66.42;99761.66;6294821;22;20420;-87
2021/07/25 17:41:17;;;;;;;3.17;2.08;;;22.90;99.90;;;24.55;66.95;99770.72;6294814;22;20479;-87
2021/07/25 17:43:44;;;;;;;5.72;2.55;;;22.90;99.90;;;24.44;66.68;99772.44;6296104;22;20376;-89
2021/07/25 17:46:14;;;;;;;3.20;2.22;;;22.90;99.90;;;24.22;64.19;99772.56;6297566;22;20008;-88
2021/07/25 17:48:40;;;;;;;3.40;2.53;;;22.80;99.90;;;24.05;66.81;99771.22;6294896;22;20027;-88
2021/07/25 17:51:07;;;;;;;7.10;1.98;;;22.70;99.90;;;24.02;64.60;99778.66;6294425;22;20011;-88
2021/07/25 17:53:33;;;;;;;4.03;2.55;;;22.60;99.90;;;23.80;65.45;99766.53;6292613;22;20023;-89
2021/07/25 17:55:59;;;;;;;3.28;2.15;;;22.40;99.90;;;23.69;66.09;99776.81;6291772;22;20007;-88
2021/07/25 17:58:25;;;;;;;3.70;2.03;;;22.40;99.90;;;23.67;65.58;99776.47;6297148;22;20018;-89
2021/07/25 18:00:52;;;;;;;2.65;1.73;;;22.30;99.90;;;23.71;65.46;99774.28;6296129;22;20037;-88
2021/07/25 18:03:18;;;;;;;1.90;1.60;;;22.30;99.90;;;23.71;63.07;99782.81;6293898;22;20007;-89
2021/07/25 18:05:44;;;;;;;3.28;2.10;;;22.30;99.90;;;23.78;63.18;99782.53;6296113;22;20038;-90
2021/07/25 18:08:13;;;;;;;3.85;2.17;;;22.30;99.90;;;23.83;62.81;99787.63;6298110;22;20004;-88
2021/07/25 18:10:41;;;;;;;2.90;1.92;;;22.30;99.90;;;23.78;63.12;99788.25;6292143;22;20004;-87
2021/07/25 18:13:07;;;;;;;2.65;2.10;;;22.30;99.90;;;23.74;62.90;99779.03;6292712;22;20029;-88
2021/07/25 18:15:33;;;;;;;4.38;1.90;;;22.30;99.90;;;23.77;63.93;99790.28;6295069;22;20007;-89
2021/07/25 18:17:59;;;;;;;3.55;2.10;;;22.30;99.90;;;23.73;63.94;99789.63;6290528;22;20286;-87
2021/07/25 18:20:30;;;;;;;3.22;2.17;;;22.20;99.90;;;23.71;63.77;99792.16;6288877;22;20012;-90
2021/07/25 18:22:56;;;;;;;3.13;1.90;;;22.20;99.90;;;23.68;63.84;99780.91;6290909;22;20068;-88
2021/07/25 18:25:23;;;;;;;3.75;1.90;;;22.20;99.90;;;23.66;63.59;99792.78;6289952;22;20008;-89
2021/07/25 18:27:49;;;;;;;3.03;2.00;;;22.20;99.90;;;23.65;62.95;99802.59;6314538;22;20004;-88
2021/07/25 18:30:17;;;;;;;3.25;2.05;;;22.20;99.90;;;23.68;63.20;99795.16;6288433;22;20028;-91
2021/07/25 18:32:43;;;;;;;2.28;1.83;;;22.20;99.90;;;23.69;63.94;99791.84;6288685;22;20050;-90
2021/07/25 18:35:10;;;;;;;3.65;2.10;;;22.20;99.90;;;23.67;63.64;99787.88;6313927;22;20441;-89
2021/07/25 18:37:37;;;;;;;3.22;2.08;;;22.20;99.90;;;23.67;63.71;99785.81;6289193;22;20336;-89
2021/07/25 18:40:04;;;;;;;3.00;2.00;;;22.10;99.90;;;23.65;63.72;99799.75;6296783;22;20020;-90
2021/07/25 18:42:31;;;;;;;2.33;1.90;;;22.10;99.90;;;23.60;63.85;99788.94;6303129;22;20031;-87
2021/07/25 18:44:57;;;;;;;3.30;2.15;;;22.10;99.90;;;23.51;64.70;99798.25;6285991;22;19999;-89
2021/07/25 18:47:23;;;;;;;2.60;2.03;;;22.00;99.90;;;23.43;64.76;99807.53;6280797;22;20480;-89
2021/07/25 18:49:49;;;;;;;3.65;2.20;;;21.90;99.90;;;23.40;64.67;99802.78;6285110;22;20000;-90
2021/07/25 18:52:15;;;;;;;3.55;2.25;;;21.90;99.90;;;23.34;65.20;99799.69;6283390;22;20035;-87
2021/07/25 18:54:41;;;;;;;3.67;1.98;;;21.80;99.90;;;23.23;65.62;99802.16;6281970;22;20000;-89
2021/07/25 18:57:10;;;;;;;3.60;2.45;;;21.70;99.90;;;23.16;66.68;99801.63;6282232;22;20000;-88
2021/07/25 18:59:36;;;;;;;2.90;2.30;;;21.70;99.90;;;23.03;66.92;99811.03;6283011;22;20011;-91
2021/07/25 19:02:03;;;;;;;3.72;2.30;;;21.50;99.90;;;22.96;67.09;99817.00;6288005;22;20060;-90
2021/07/25 19:04:29;;;;;;;5.60;1.92;;;21.50;99.90;;;22.92;67.45;99819.19;6283177;22;20019;-89
2021/07/25 19:06:54;;;;;;;2.92;2.38;;;21.40;99.90;;;22.82;69.09;99811.84;6284955;22;19999;-88
2021/07/25 19:09:21;;;;;;;4.63;2.67;;;21.40;99.90;;;22.77;68.86;99806.72;6285340;22;20061;-89
2021/07/25 19:11:47;;;;;;;3.78;2.22;;;21.30;99.90;;;22.72;69.20;99812.22;6282869;22;20007;-87
2021/07/25 19:14:13;;;;;;;3.05;2.17;;;21.30;99.90;;;22.66;69.32;99811.22;6282639;22;20018;-91
2021/07/25 19:16:39;;;;;;;4.97;2.33;;;21.20;99.90;;;22.55;70.20;99805.84;6283051;22;20332;-89
2021/07/25 19:19:05;;;;;;;3.15;2.10;;;21.10;99.90;;;22.47;67.00;99808.16;6280021;22;20008;-88
2021/07/25 19:21:31;;;;;;;5.25;2.53;;;21.00;99.90;;;22.46;66.37;99800.88;6280203;22;20007;-90
2021/07/25 19:23:58;;;;;;;3.50;1.77;;;21.10;99.90;;;22.50;66.71;99810.09;6280728;22;20065;-88
2021/07/25 19:26:25;;;;;;;4.30;2.35;;;21.20;99.90;;;22.48;66.36;99804.06;6281956;22;20008;-89
2021/07/25 19:28:52;;;;;;;5.40;2.58;;;21.10;99.90;;;22.45;66.31;99804.16;6282255;22;20030;-88
2021/07/25 19:31:19;;;;;;;4.32;2.13;;;21.00;99.90;;;22.45;66.59;99807.81;6281033;22;20000;-88
2021/07/25 19:33:46;;;;;;;2.75;2.05;;;21.00;99.90;;;22.37;66.76;99812.19;6280945;22;20053;-89
2021/07/25 19:36:12;;;;;;;3.28;2.17;;;21.00;99.90;;;22.35;67.10;99820.34;6282349;22;20094;-87
2021/07/25 19:38:40;;;;;;;3.47;2.30;;;21.00;99.90;;;22.32;67.55;99821.28;6284315;22;20014;-89
2021/07/25 19:41:09;;;;;;;4.65;2.13;;;20.90;99.90;;;22.30;67.38;99826.63;6278951;22;20421;-89
2021/07/25 19:43:38;;;;;;;3.72;2.40;;;20.80;99.90;;;22.25;67.47;99823.59;6280277;22;20011;-91
2021/07/25 19:46:10;;;;;;;4.03;2.72;;;20.80;99.90;;;22.23;67.22;99829.72;6277972;22;20437;-89
2021/07/25 19:48:39;;;;;;;3.67;2.08;;;20.80;99.90;;;22.20;67.99;99836.31;6306456;22;20011;-88
2021/07/25 19:51:06;;;;;;;3.85;2.40;;;20.80;99.90;;;22.15;67.91;99819.84;6283432;22;20017;-87
2021/07/25 19:53:34;;;;;;;2.78;2.20;;;20.70;99.90;;;22.12;68.09;99831.34;6284290;22;20003;-88
2021/07/25 19:56:04;;;;;;;4.70;2.65;;;20.70;99.90;;;22.10;68.96;99830.97;6290587;22;20074;-89
2021/07/25 19:58:30;;;;;;;3.85;2.40;;;20.70;99.90;;;22.08;69.32;99845.66;6296241;22;20019;-87
2021/07/25 20:00:55;;;;;;;4.65;2.97;;;20.70;99.90;;;21.95;69.43;99833.50;6286985;22;20014;-89
2021/07/25 20:03:25;;;;;;;4.05;2.70;;;20.50;99.90;;;21.85;70.69;99851.66;6281971;22;20007;-90
2021/07/25 20:05:54;;;;;;;5.28;2.95;;;20.40;99.90;;;21.75;71.26;99849.94;6321016;22;20106;-87